sensor_id;sensor_type;location;lat;lon;timestamp;P1;durP1;ratioP1;P2;durP2;ratioP2
37791;SDS011;29527;55.766;37.570;2023-04-19T00:01:23;18.17;;;10.23;;
37791;SDS011;29527;55.766;37.570;2023-04-19T00:03:49;19.70;;;10.82;;
37791;SDS011;29527;55.766;37.570;2023-04-19T00:06:15;20.40;;;11.73;;
37791;SDS011;29527;55.766;37.570;2023-04-19T00:08:41;20.23;;;9.70;;
37791;SDS011;29527;55.766;37.570;2023-04-19T00:11:07;25.23;;;13.10;;
37791;SDS011;29527;55.766;37.570;2023-04-19T00:13:34;26.98;;;13.50;;
37791;SDS011;29527;55.766;37.570;2023-04-19T00:15:59;26.30;;;12.98;;
37791;SDS011;29527;55.766;37.570;2023-04-19T00:18:25;29.73;;;15.38;;
37791;SDS011;29527;55.766;37.570;2023-04-19T00:20:51;27.63;;;13.57;;
37791;SDS011;29527;55.766;37.570;2023-04-19T00:23:16;18.42;;;11.15;;
37791;SDS011;29527;55.766;37.570;2023-04-19T00:25:42;21.15;;;10.25;;
37791;SDS011;29527;55.766;37.570;2023-04-19T00:28:07;17.90;;;10.90;;
37791;SDS011;29527;55.766;37.570;2023-04-19T00:30:33;18.65;;;10.57;;
37791;SDS011;29527;55.766;37.570;2023-04-19T00:32:58;16.27;;;8.95;;
37791;SDS011;29527;55.766;37.570;2023-04-19T00:35:24;13.50;;;9.30;;
37791;SDS011;29527;55.766;37.570;2023-04-19T00:37:49;15.13;;;9.13;;
37791;SDS011;29527;55.766;37.570;2023-04-19T00:40:15;13.60;;;9.13;;
37791;SDS011;29527;55.766;37.570;2023-04-19T00:42:41;12.77;;;8.75;;
37791;SDS011;29527;55.766;37.570;2023-04-19T00:45:06;17.92;;;9.63;;
37791;SDS011;29527;55.766;37.570;2023-04-19T00:47:33;16.23;;;9.63;;
37791;SDS011;29527;55.766;37.570;2023-04-19T00:50:00;16.08;;;9.60;;
37791;SDS011;29527;55.766;37.570;2023-04-19T00:52:29;15.50;;;8.95;;
37791;SDS011;29527;55.766;37.570;2023-04-19T00:54:56;13.27;;;9.05;;
37791;SDS011;29527;55.766;37.570;2023-04-19T00:57:22;17.77;;;9.90;;
37791;SDS011;29527;55.766;37.570;2023-04-19T00:59:49;13.45;;;9.23;;
37791;SDS011;29527;55.766;37.570;2023-04-19T01:02:15;17.60;;;9.55;;
37791;SDS011;29527;55.766;37.570;2023-04-19T01:04:41;14.95;;;8.82;;
37791;SDS011;29527;55.766;37.570;2023-04-19T01:07:07;15.77;;;9.23;;
37791;SDS011;29527;55.766;37.570;2023-04-19T01:09:33;15.88;;;9.25;;
37791;SDS011;29527;55.766;37.570;2023-04-19T01:11:59;19.15;;;9.25;;
37791;SDS011;29527;55.766;37.570;2023-04-19T01:14:26;15.10;;;8.70;;
37791;SDS011;29527;55.766;37.570;2023-04-19T01:16:51;14.27;;;9.50;;
37791;SDS011;29527;55.766;37.570;2023-04-19T01:19:18;13.02;;;9.73;;
37791;SDS011;29527;55.766;37.570;2023-04-19T01:21:45;15.02;;;8.85;;
37791;SDS011;29527;55.766;37.570;2023-04-19T01:24:11;17.08;;;9.65;;
37791;SDS011;29527;55.766;37.570;2023-04-19T01:26:36;13.48;;;8.52;;
37791;SDS011;29527;55.766;37.570;2023-04-19T01:29:02;13.02;;;9.48;;
37791;SDS011;29527;55.766;37.570;2023-04-19T01:31:28;17.45;;;9.45;;
37791;SDS011;29527;55.766;37.570;2023-04-19T01:33:53;14.90;;;8.50;;
37791;SDS011;29527;55.766;37.570;2023-04-19T01:36:19;18.52;;;9.23;;
37791;SDS011;29527;55.766;37.570;2023-04-19T01:38:44;14.15;;;8.63;;
37791;SDS011;29527;55.766;37.570;2023-04-19T01:41:12;15.90;;;8.20;;
37791;SDS011;29527;55.766;37.570;2023-04-19T01:43:38;18.33;;;8.70;;
37791;SDS011;29527;55.766;37.570;2023-04-19T01:46:03;13.70;;;9.15;;
37791;SDS011;29527;55.766;37.570;2023-04-19T01:48:29;13.02;;;9.00;;
37791;SDS011;29527;55.766;37.570;2023-04-19T01:50:54;15.05;;;9.35;;
37791;SDS011;29527;55.766;37.570;2023-04-19T01:53:20;14.55;;;8.52;;
37791;SDS011;29527;55.766;37.570;2023-04-19T01:55:46;12.88;;;8.77;;
37791;SDS011;29527;55.766;37.570;2023-04-19T01:58:11;14.95;;;9.27;;
37791;SDS011;29527;55.766;37.570;2023-04-19T02:00:37;15.73;;;8.77;;
37791;SDS011;29527;55.766;37.570;2023-04-19T02:03:03;12.38;;;8.82;;
37791;SDS011;29527;55.766;37.570;2023-04-19T02:05:29;15.55;;;8.70;;
37791;SDS011;29527;55.766;37.570;2023-04-19T02:07:54;13.48;;;8.45;;
37791;SDS011;29527;55.766;37.570;2023-04-19T02:10:20;18.02;;;8.90;;
37791;SDS011;29527;55.766;37.570;2023-04-19T02:12:46;12.65;;;8.75;;
37791;SDS011;29527;55.766;37.570;2023-04-19T02:15:12;13.40;;;8.63;;
37791;SDS011;29527;55.766;37.570;2023-04-19T02:17:37;19.08;;;9.52;;
37791;SDS011;29527;55.766;37.570;2023-04-19T02:20:04;11.73;;;8.15;;
37791;SDS011;29527;55.766;37.570;2023-04-19T02:22:32;13.15;;;8.60;;
37791;SDS011;29527;55.766;37.570;2023-04-19T02:24:58;16.42;;;8.52;;
37791;SDS011;29527;55.766;37.570;2023-04-19T02:27:23;17.23;;;9.05;;
37791;SDS011;29527;55.766;37.570;2023-04-19T02:29:49;16.02;;;8.75;;
37791;SDS011;29527;55.766;37.570;2023-04-19T02:32:14;14.90;;;8.68;;
37791;SDS011;29527;55.766;37.570;2023-04-19T02:34:40;13.27;;;9.20;;
37791;SDS011;29527;55.766;37.570;2023-04-19T02:37:05;16.67;;;9.02;;
37791;SDS011;29527;55.766;37.570;2023-04-19T02:39:31;13.32;;;8.57;;
37791;SDS011;29527;55.766;37.570;2023-04-19T02:41:58;14.77;;;8.23;;
37791;SDS011;29527;55.766;37.570;2023-04-19T02:44:25;16.48;;;8.95;;
37791;SDS011;29527;55.766;37.570;2023-04-19T02:46:51;13.90;;;8.43;;
37791;SDS011;29527;55.766;37.570;2023-04-19T02:49:18;16.65;;;9.02;;
37791;SDS011;29527;55.766;37.570;2023-04-19T02:51:45;15.70;;;8.68;;
37791;SDS011;29527;55.766;37.570;2023-04-19T02:54:11;17.83;;;9.73;;
37791;SDS011;29527;55.766;37.570;2023-04-19T02:56:38;15.50;;;8.70;;
37791;SDS011;29527;55.766;37.570;2023-04-19T02:59:03;15.63;;;8.93;;
37791;SDS011;29527;55.766;37.570;2023-04-19T03:01:29;16.73;;;9.18;;
37791;SDS011;29527;55.766;37.570;2023-04-19T03:03:56;16.60;;;9.07;;
37791;SDS011;29527;55.766;37.570;2023-04-19T03:06:21;18.40;;;8.40;;
37791;SDS011;29527;55.766;37.570;2023-04-19T03:08:47;14.73;;;8.35;;
37791;SDS011;29527;55.766;37.570;2023-04-19T03:11:14;15.32;;;8.82;;
37791;SDS011;29527;55.766;37.570;2023-04-19T03:13:40;13.07;;;8.35;;
37791;SDS011;29527;55.766;37.570;2023-04-19T03:16:06;17.58;;;8.70;;
37791;SDS011;29527;55.766;37.570;2023-04-19T03:18:32;20.00;;;8.32;;
37791;SDS011;29527;55.766;37.570;2023-04-19T03:20:58;11.43;;;8.13;;
37791;SDS011;29527;55.766;37.570;2023-04-19T03:23:27;16.20;;;8.95;;
37791;SDS011;29527;55.766;37.570;2023-04-19T03:25:52;11.82;;;8.00;;
37791;SDS011;29527;55.766;37.570;2023-04-19T03:28:18;14.07;;;8.07;;
37791;SDS011;29527;55.766;37.570;2023-04-19T03:30:43;17.42;;;8.50;;
37791;SDS011;29527;55.766;37.570;2023-04-19T03:33:09;16.60;;;8.45;;
37791;SDS011;29527;55.766;37.570;2023-04-19T03:35:35;13.35;;;8.30;;
37791;SDS011;29527;55.766;37.570;2023-04-19T03:38:00;17.38;;;8.43;;
37791;SDS011;29527;55.766;37.570;2023-04-19T03:40:26;17.48;;;8.52;;
37791;SDS011;29527;55.766;37.570;2023-04-19T03:42:51;16.88;;;7.97;;
37791;SDS011;29527;55.766;37.570;2023-04-19T03:45:17;16.65;;;7.95;;
37791;SDS011;29527;55.766;37.570;2023-04-19T03:47:42;16.63;;;8.25;;
37791;SDS011;29527;55.766;37.570;2023-04-19T03:50:08;12.95;;;7.90;;
37791;SDS011;29527;55.766;37.570;2023-04-19T03:52:34;14.68;;;8.32;;
37791;SDS011;29527;55.766;37.570;2023-04-19T03:54:59;21.38;;;9.02;;
37791;SDS011;29527;55.766;37.570;2023-04-19T03:57:25;12.73;;;8.27;;
37791;SDS011;29527;55.766;37.570;2023-04-19T03:59:50;13.45;;;8.20;;
37791;SDS011;29527;55.766;37.570;2023-04-19T04:02:16;13.10;;;8.48;;
37791;SDS011;29527;55.766;37.570;2023-04-19T04:04:41;13.98;;;8.15;;
37791;SDS011;29527;55.766;37.570;2023-04-19T04:07:07;18.35;;;8.45;;
37791;SDS011;29527;55.766;37.570;2023-04-19T04:09:32;12.27;;;8.20;;
37791;SDS011;29527;55.766;37.570;2023-04-19T04:11:58;14.25;;;8.70;;
37791;SDS011;29527;55.766;37.570;2023-04-19T04:14:24;17.25;;;8.57;;
37791;SDS011;29527;55.766;37.570;2023-04-19T04:16:49;14.40;;;8.63;;
37791;SDS011;29527;55.766;37.570;2023-04-19T04:19:15;18.58;;;8.45;;
37791;SDS011;29527;55.766;37.570;2023-04-19T04:21:42;14.85;;;7.82;;
37791;SDS011;29527;55.766;37.570;2023-04-19T04:24:07;12.85;;;8.27;;
37791;SDS011;29527;55.766;37.570;2023-04-19T04:26:34;16.17;;;8.20;;
37791;SDS011;29527;55.766;37.570;2023-04-19T04:29:03;12.65;;;7.93;;
37791;SDS011;29527;55.766;37.570;2023-04-19T04:31:29;15.65;;;8.20;;
37791;SDS011;29527;55.766;37.570;2023-04-19T04:33:56;19.83;;;8.73;;
37791;SDS011;29527;55.766;37.570;2023-04-19T04:36:21;15.95;;;7.80;;
37791;SDS011;29527;55.766;37.570;2023-04-19T04:38:47;12.27;;;8.52;;
37791;SDS011;29527;55.766;37.570;2023-04-19T04:41:12;17.55;;;8.48;;
37791;SDS011;29527;55.766;37.570;2023-04-19T04:43:38;17.58;;;8.48;;
37791;SDS011;29527;55.766;37.570;2023-04-19T04:46:04;18.25;;;8.88;;
37791;SDS011;29527;55.766;37.570;2023-04-19T04:48:29;12.80;;;8.48;;
37791;SDS011;29527;55.766;37.570;2023-04-19T04:50:55;16.48;;;9.15;;
37791;SDS011;29527;55.766;37.570;2023-04-19T04:53:21;14.07;;;8.30;;
37791;SDS011;29527;55.766;37.570;2023-04-19T04:55:49;19.20;;;8.07;;
37791;SDS011;29527;55.766;37.570;2023-04-19T04:58:16;15.95;;;8.15;;
37791;SDS011;29527;55.766;37.570;2023-04-19T05:00:42;16.17;;;8.70;;
37791;SDS011;29527;55.766;37.570;2023-04-19T05:03:07;24.60;;;8.57;;
37791;SDS011;29527;55.766;37.570;2023-04-19T05:05:33;16.83;;;8.35;;
37791;SDS011;29527;55.766;37.570;2023-04-19T05:07:59;21.35;;;8.60;;
37791;SDS011;29527;55.766;37.570;2023-04-19T05:10:25;18.52;;;8.50;;
37791;SDS011;29527;55.766;37.570;2023-04-19T05:12:50;19.15;;;8.52;;
37791;SDS011;29527;55.766;37.570;2023-04-19T05:15:16;18.20;;;8.57;;
37791;SDS011;29527;55.766;37.570;2023-04-19T05:17:41;17.35;;;8.25;;
37791;SDS011;29527;55.766;37.570;2023-04-19T05:20:07;14.15;;;8.05;;
37791;SDS011;29527;55.766;37.570;2023-04-19T05:22:33;15.88;;;8.20;;
37791;SDS011;29527;55.766;37.570;2023-04-19T05:24:59;19.05;;;8.05;;
37791;SDS011;29527;55.766;37.570;2023-04-19T05:27:24;15.73;;;7.85;;
37791;SDS011;29527;55.766;37.570;2023-04-19T05:29:50;18.20;;;8.02;;
37791;SDS011;29527;55.766;37.570;2023-04-19T05:32:16;16.30;;;8.38;;
37791;SDS011;29527;55.766;37.570;2023-04-19T05:34:41;17.38;;;8.43;;
37791;SDS011;29527;55.766;37.570;2023-04-19T05:37:07;15.98;;;8.68;;
37791;SDS011;29527;55.766;37.570;2023-04-19T05:39:32;13.95;;;8.05;;
37791;SDS011;29527;55.766;37.570;2023-04-19T05:41:58;18.88;;;8.88;;
37791;SDS011;29527;55.766;37.570;2023-04-19T05:44:24;16.27;;;8.48;;
37791;SDS011;29527;55.766;37.570;2023-04-19T05:46:50;14.05;;;8.00;;
37791;SDS011;29527;55.766;37.570;2023-04-19T05:49:15;17.30;;;8.10;;
37791;SDS011;29527;55.766;37.570;2023-04-19T05:51:40;11.93;;;7.38;;
37791;SDS011;29527;55.766;37.570;2023-04-19T05:54:06;18.23;;;7.85;;
37791;SDS011;29527;55.766;37.570;2023-04-19T05:56:36;16.27;;;7.60;;
37791;SDS011;29527;55.766;37.570;2023-04-19T05:59:02;10.90;;;7.70;;
37791;SDS011;29527;55.766;37.570;2023-04-19T06:01:28;14.60;;;7.13;;
37791;SDS011;29527;55.766;37.570;2023-04-19T06:03:53;12.70;;;7.50;;
37791;SDS011;29527;55.766;37.570;2023-04-19T06:06:20;15.43;;;7.90;;
37791;SDS011;29527;55.766;37.570;2023-04-19T06:08:46;16.60;;;7.25;;
37791;SDS011;29527;55.766;37.570;2023-04-19T06:11:12;14.57;;;6.80;;
37791;SDS011;29527;55.766;37.570;2023-04-19T06:13:37;11.70;;;6.75;;
37791;SDS011;29527;55.766;37.570;2023-04-19T06:16:03;12.18;;;7.05;;
37791;SDS011;29527;55.766;37.570;2023-04-19T06:18:28;13.23;;;7.40;;
37791;SDS011;29527;55.766;37.570;2023-04-19T06:20:54;15.65;;;6.72;;
37791;SDS011;29527;55.766;37.570;2023-04-19T06:23:20;13.40;;;7.10;;
37791;SDS011;29527;55.766;37.570;2023-04-19T06:25:45;13.38;;;6.60;;
37791;SDS011;29527;55.766;37.570;2023-04-19T06:28:13;13.27;;;6.60;;
37791;SDS011;29527;55.766;37.570;2023-04-19T06:30:38;11.38;;;6.47;;
37791;SDS011;29527;55.766;37.570;2023-04-19T06:33:04;11.43;;;6.53;;
37791;SDS011;29527;55.766;37.570;2023-04-19T06:35:30;10.52;;;6.03;;
37791;SDS011;29527;55.766;37.570;2023-04-19T06:37:56;7.88;;;5.90;;
37791;SDS011;29527;55.766;37.570;2023-04-19T06:40:21;12.40;;;6.20;;
37791;SDS011;29527;55.766;37.570;2023-04-19T06:42:47;8.02;;;5.55;;
37791;SDS011;29527;55.766;37.570;2023-04-19T06:45:12;6.75;;;5.72;;
37791;SDS011;29527;55.766;37.570;2023-04-19T06:47:40;10.00;;;6.30;;
37791;SDS011;29527;55.766;37.570;2023-04-19T06:50:06;13.43;;;5.63;;
37791;SDS011;29527;55.766;37.570;2023-04-19T06:52:32;7.35;;;5.00;;
37791;SDS011;29527;55.766;37.570;2023-04-19T06:54:57;7.50;;;5.28;;
37791;SDS011;29527;55.766;37.570;2023-04-19T06:57:23;11.55;;;5.07;;
37791;SDS011;29527;55.766;37.570;2023-04-19T06:59:49;8.73;;;4.68;;
37791;SDS011;29527;55.766;37.570;2023-04-19T07:02:14;7.22;;;4.38;;
37791;SDS011;29527;55.766;37.570;2023-04-19T07:04:40;5.18;;;4.47;;
37791;SDS011;29527;55.766;37.570;2023-04-19T07:07:05;7.70;;;4.65;;
37791;SDS011;29527;55.766;37.570;2023-04-19T07:09:31;8.55;;;4.90;;
37791;SDS011;29527;55.766;37.570;2023-04-19T07:11:56;11.25;;;4.22;;
37791;SDS011;29527;55.766;37.570;2023-04-19T07:14:22;10.60;;;4.63;;
37791;SDS011;29527;55.766;37.570;2023-04-19T07:16:48;7.03;;;4.53;;
37791;SDS011;29527;55.766;37.570;2023-04-19T07:19:14;8.95;;;4.45;;
37791;SDS011;29527;55.766;37.570;2023-04-19T07:21:40;11.27;;;4.70;;
37791;SDS011;29527;55.766;37.570;2023-04-19T07:24:05;11.63;;;4.78;;
37791;SDS011;29527;55.766;37.570;2023-04-19T07:26:32;10.32;;;4.30;;
37791;SDS011;29527;55.766;37.570;2023-04-19T07:28:58;12.60;;;4.55;;
37791;SDS011;29527;55.766;37.570;2023-04-19T07:31:25;7.65;;;4.28;;
37791;SDS011;29527;55.766;37.570;2023-04-19T07:33:52;8.07;;;4.38;;
37791;SDS011;29527;55.766;37.570;2023-04-19T07:36:18;10.35;;;4.30;;
37791;SDS011;29527;55.766;37.570;2023-04-19T07:38:44;10.35;;;4.22;;
37791;SDS011;29527;55.766;37.570;2023-04-19T07:41:09;6.18;;;4.53;;
37791;SDS011;29527;55.766;37.570;2023-04-19T07:43:35;6.40;;;4.43;;
37791;SDS011;29527;55.766;37.570;2023-04-19T07:46:01;7.57;;;4.30;;
37791;SDS011;29527;55.766;37.570;2023-04-19T07:48:33;7.60;;;4.20;;
37791;SDS011;29527;55.766;37.570;2023-04-19T07:51:11;10.55;;;3.95;;
37791;SDS011;29527;55.766;37.570;2023-04-19T07:53:45;8.85;;;3.67;;
37791;SDS011;29527;55.766;37.570;2023-04-19T07:56:11;12.10;;;3.92;;
37791;SDS011;29527;55.766;37.570;2023-04-19T07:58:37;7.55;;;3.42;;
37791;SDS011;29527;55.766;37.570;2023-04-19T08:01:03;5.45;;;4.03;;
37791;SDS011;29527;55.766;37.570;2023-04-19T08:03:30;7.65;;;4.20;;
37791;SDS011;29527;55.766;37.570;2023-04-19T08:05:56;8.55;;;3.83;;
37791;SDS011;29527;55.766;37.570;2023-04-19T08:08:22;9.43;;;4.30;;
37791;SDS011;29527;55.766;37.570;2023-04-19T08:10:49;5.60;;;3.50;;
37791;SDS011;29527;55.766;37.570;2023-04-19T08:13:14;6.00;;;3.92;;
37791;SDS011;29527;55.766;37.570;2023-04-19T08:15:40;7.88;;;4.07;;
37791;SDS011;29527;55.766;37.570;2023-04-19T08:18:06;6.80;;;4.28;;
37791;SDS011;29527;55.766;37.570;2023-04-19T08:20:32;7.85;;;4.13;;
37791;SDS011;29527;55.766;37.570;2023-04-19T08:22:58;8.93;;;4.28;;
37791;SDS011;29527;55.766;37.570;2023-04-19T08:25:24;8.38;;;4.72;;
37791;SDS011;29527;55.766;37.570;2023-04-19T08:27:53;7.00;;;4.82;;
37791;SDS011;29527;55.766;37.570;2023-04-19T08:30:19;10.77;;;4.80;;
37791;SDS011;29527;55.766;37.570;2023-04-19T08:32:45;9.70;;;4.70;;
37791;SDS011;29527;55.766;37.570;2023-04-19T08:35:11;9.93;;;4.80;;
37791;SDS011;29527;55.766;37.570;2023-04-19T08:37:38;13.48;;;4.97;;
37791;SDS011;29527;55.766;37.570;2023-04-19T08:40:03;7.00;;;5.10;;
37791;SDS011;29527;55.766;37.570;2023-04-19T08:42:30;11.88;;;5.20;;
37791;SDS011;29527;55.766;37.570;2023-04-19T08:44:56;8.23;;;5.25;;
37791;SDS011;29527;55.766;37.570;2023-04-19T08:47:27;8.25;;;5.00;;
37791;SDS011;29527;55.766;37.570;2023-04-19T08:49:53;9.82;;;4.68;;
37791;SDS011;29527;55.766;37.570;2023-04-19T08:52:20;7.93;;;5.07;;
37791;SDS011;29527;55.766;37.570;2023-04-19T08:54:46;5.55;;;4.80;;
37791;SDS011;29527;55.766;37.570;2023-04-19T08:57:12;13.00;;;5.10;;
37791;SDS011;29527;55.766;37.570;2023-04-19T08:59:38;11.20;;;5.00;;
37791;SDS011;29527;55.766;37.570;2023-04-19T09:02:03;11.32;;;5.10;;
37791;SDS011;29527;55.766;37.570;2023-04-19T09:04:29;10.57;;;5.28;;
37791;SDS011;29527;55.766;37.570;2023-04-19T09:06:55;11.23;;;4.68;;
37791;SDS011;29527;55.766;37.570;2023-04-19T09:09:25;12.90;;;5.38;;
37791;SDS011;29527;55.766;37.570;2023-04-19T09:11:52;9.60;;;5.40;;
37791;SDS011;29527;55.766;37.570;2023-04-19T09:14:19;12.43;;;5.18;;
37791;SDS011;29527;55.766;37.570;2023-04-19T09:16:46;9.52;;;5.28;;
37791;SDS011;29527;55.766;37.570;2023-04-19T09:19:11;9.43;;;5.32;;
37791;SDS011;29527;55.766;37.570;2023-04-19T09:21:38;8.95;;;4.82;;
37791;SDS011;29527;55.766;37.570;2023-04-19T09:24:04;10.95;;;5.03;;
37791;SDS011;29527;55.766;37.570;2023-04-19T09:26:30;10.25;;;5.18;;
37791;SDS011;29527;55.766;37.570;2023-04-19T09:28:57;8.10;;;4.75;;
37791;SDS011;29527;55.766;37.570;2023-04-19T09:31:28;10.80;;;5.32;;
37791;SDS011;29527;55.766;37.570;2023-04-19T09:33:55;13.15;;;4.75;;
37791;SDS011;29527;55.766;37.570;2023-04-19T09:36:30;7.70;;;5.25;;
37791;SDS011;29527;55.766;37.570;2023-04-19T09:38:58;8.05;;;5.07;;
37791;SDS011;29527;55.766;37.570;2023-04-19T09:41:24;14.20;;;5.50;;
37791;SDS011;29527;55.766;37.570;2023-04-19T09:43:50;7.47;;;5.10;;
37791;SDS011;29527;55.766;37.570;2023-04-19T09:46:35;10.25;;;4.90;;
37791;SDS011;29527;55.766;37.570;2023-04-19T09:49:14;9.90;;;4.70;;
37791;SDS011;29527;55.766;37.570;2023-04-19T09:51:51;8.02;;;4.78;;
37791;SDS011;29527;55.766;37.570;2023-04-19T09:54:19;10.38;;;4.40;;
37791;SDS011;29527;55.766;37.570;2023-04-19T09:56:47;9.75;;;5.13;;
37791;SDS011;29527;55.766;37.570;2023-04-19T09:59:13;11.90;;;5.45;;
37791;SDS011;29527;55.766;37.570;2023-04-19T10:01:43;12.90;;;5.03;;
37791;SDS011;29527;55.766;37.570;2023-04-19T10:04:11;14.02;;;4.90;;
37791;SDS011;29527;55.766;37.570;2023-04-19T10:06:39;8.82;;;4.72;;
37791;SDS011;29527;55.766;37.570;2023-04-19T10:09:05;11.02;;;5.07;;
37791;SDS011;29527;55.766;37.570;2023-04-19T10:11:35;10.73;;;5.03;;
37791;SDS011;29527;55.766;37.570;2023-04-19T10:14:06;6.22;;;4.95;;
37791;SDS011;29527;55.766;37.570;2023-04-19T10:16:34;6.78;;;4.95;;
37791;SDS011;29527;55.766;37.570;2023-04-19T10:19:06;8.77;;;5.15;;
37791;SDS011;29527;55.766;37.570;2023-04-19T10:21:33;8.80;;;5.00;;
37791;SDS011;29527;55.766;37.570;2023-04-19T10:24:00;8.27;;;5.25;;
37791;SDS011;29527;55.766;37.570;2023-04-19T10:26:26;7.97;;;5.15;;
37791;SDS011;29527;55.766;37.570;2023-04-19T10:28:53;9.80;;;5.45;;
37791;SDS011;29527;55.766;37.570;2023-04-19T10:31:20;6.20;;;5.10;;
37791;SDS011;29527;55.766;37.570;2023-04-19T10:33:48;6.20;;;4.85;;
37791;SDS011;29527;55.766;37.570;2023-04-19T10:36:15;8.43;;;4.80;;
37791;SDS011;29527;55.766;37.570;2023-04-19T10:38:48;9.40;;;4.97;;
37791;SDS011;29527;55.766;37.570;2023-04-19T10:41:20;9.65;;;4.65;;
37791;SDS011;29527;55.766;37.570;2023-04-19T10:43:47;6.80;;;4.63;;
37791;SDS011;29527;55.766;37.570;2023-04-19T10:49:00;9.73;;;4.80;;
37791;SDS011;29527;55.766;37.570;2023-04-19T10:51:28;16.88;;;5.28;;
37791;SDS011;29527;55.766;37.570;2023-04-19T10:53:57;8.07;;;4.80;;
37791;SDS011;29527;55.766;37.570;2023-04-19T11:01:37;8.50;;;4.97;;
37791;SDS011;29527;55.766;37.570;2023-04-19T11:06:34;9.40;;;4.50;;
37791;SDS011;29527;55.766;37.570;2023-04-19T11:11:58;8.70;;;4.75;;
37791;SDS011;29527;55.766;37.570;2023-04-19T11:14:25;9.30;;;4.60;;
37791;SDS011;29527;55.766;37.570;2023-04-19T11:16:53;8.88;;;5.47;;
37791;SDS011;29527;55.766;37.570;2023-04-19T11:19:19;10.48;;;4.72;;
37791;SDS011;29527;55.766;37.570;2023-04-19T11:21:45;8.00;;;4.70;;
37791;SDS011;29527;55.766;37.570;2023-04-19T11:24:11;6.85;;;5.05;;
37791;SDS011;29527;55.766;37.570;2023-04-19T11:26:37;8.55;;;4.70;;
37791;SDS011;29527;55.766;37.570;2023-04-19T11:29:03;7.50;;;4.95;;
37791;SDS011;29527;55.766;37.570;2023-04-19T11:31:33;6.90;;;4.88;;
37791;SDS011;29527;55.766;37.570;2023-04-19T11:33:59;6.30;;;4.68;;
37791;SDS011;29527;55.766;37.570;2023-04-19T11:36:26;6.78;;;4.53;;
37791;SDS011;29527;55.766;37.570;2023-04-19T11:38:52;7.18;;;4.32;;
37791;SDS011;29527;55.766;37.570;2023-04-19T11:41:18;7.72;;;4.40;;
37791;SDS011;29527;55.766;37.570;2023-04-19T11:43:44;12.57;;;4.97;;
37791;SDS011;29527;55.766;37.570;2023-04-19T11:46:11;6.72;;;4.50;;
37791;SDS011;29527;55.766;37.570;2023-04-19T11:48:38;10.65;;;4.90;;
37791;SDS011;29527;55.766;37.570;2023-04-19T11:51:14;8.73;;;5.03;;
37791;SDS011;29527;55.766;37.570;2023-04-19T11:53:40;6.65;;;4.53;;
37791;SDS011;29527;55.766;37.570;2023-04-19T11:56:06;7.82;;;4.57;;
37791;SDS011;29527;55.766;37.570;2023-04-19T12:01:02;12.05;;;5.07;;
37791;SDS011;29527;55.766;37.570;2023-04-19T12:03:30;8.55;;;4.90;;
37791;SDS011;29527;55.766;37.570;2023-04-19T12:05:57;5.82;;;4.57;;
37791;SDS011;29527;55.766;37.570;2023-04-19T12:08:34;8.05;;;4.60;;
37791;SDS011;29527;55.766;37.570;2023-04-19T12:11:01;7.68;;;4.50;;
37791;SDS011;29527;55.766;37.570;2023-04-19T12:13:28;9.57;;;4.70;;
37791;SDS011;29527;55.766;37.570;2023-04-19T12:15:55;8.05;;;4.82;;
37791;SDS011;29527;55.766;37.570;2023-04-19T12:18:21;8.18;;;4.95;;
37791;SDS011;29527;55.766;37.570;2023-04-19T12:20:47;7.05;;;4.70;;
37791;SDS011;29527;55.766;37.570;2023-04-19T12:23:14;9.85;;;4.78;;
37791;SDS011;29527;55.766;37.570;2023-04-19T12:25:42;11.32;;;5.28;;
37791;SDS011;29527;55.766;37.570;2023-04-19T12:28:08;7.20;;;5.30;;
37791;SDS011;29527;55.766;37.570;2023-04-19T12:30:34;8.35;;;4.57;;
37791;SDS011;29527;55.766;37.570;2023-04-19T12:33:01;17.77;;;4.80;;
37791;SDS011;29527;55.766;37.570;2023-04-19T12:35:27;7.82;;;4.70;;
37791;SDS011;29527;55.766;37.570;2023-04-19T12:37:53;6.40;;;4.30;;
37791;SDS011;29527;55.766;37.570;2023-04-19T12:40:21;6.03;;;4.40;;
37791;SDS011;29527;55.766;37.570;2023-04-19T12:42:47;6.22;;;4.88;;
37791;SDS011;29527;55.766;37.570;2023-04-19T12:45:13;8.70;;;4.80;;
37791;SDS011;29527;55.766;37.570;2023-04-19T12:47:39;6.70;;;5.00;;
37791;SDS011;29527;55.766;37.570;2023-04-19T12:50:06;8.73;;;5.20;;
37791;SDS011;29527;55.766;37.570;2023-04-19T12:52:32;10.52;;;5.10;;
37791;SDS011;29527;55.766;37.570;2023-04-19T12:54:58;11.93;;;5.20;;
37791;SDS011;29527;55.766;37.570;2023-04-19T12:57:24;13.02;;;4.90;;
37791;SDS011;29527;55.766;37.570;2023-04-19T12:59:49;6.75;;;5.40;;
37791;SDS011;29527;55.766;37.570;2023-04-19T13:02:15;8.43;;;4.85;;
37791;SDS011;29527;55.766;37.570;2023-04-19T13:04:41;9.35;;;4.43;;
37791;SDS011;29527;55.766;37.570;2023-04-19T13:07:06;8.13;;;4.43;;
37791;SDS011;29527;55.766;37.570;2023-04-19T13:09:32;7.15;;;4.70;;
37791;SDS011;29527;55.766;37.570;2023-04-19T13:11:57;6.40;;;4.72;;
37791;SDS011;29527;55.766;37.570;2023-04-19T13:14:25;6.07;;;4.60;;
37791;SDS011;29527;55.766;37.570;2023-04-19T13:16:51;11.45;;;5.05;;
37791;SDS011;29527;55.766;37.570;2023-04-19T13:19:17;7.90;;;4.60;;
37791;SDS011;29527;55.766;37.570;2023-04-19T13:21:42;9.65;;;4.93;;
37791;SDS011;29527;55.766;37.570;2023-04-19T13:24:08;10.65;;;4.95;;
37791;SDS011;29527;55.766;37.570;2023-04-19T13:26:34;12.45;;;5.45;;
37791;SDS011;29527;55.766;37.570;2023-04-19T13:28:59;9.73;;;4.90;;
37791;SDS011;29527;55.766;37.570;2023-04-19T13:31:25;7.95;;;4.80;;
37791;SDS011;29527;55.766;37.570;2023-04-19T13:33:51;7.30;;;5.10;;
37791;SDS011;29527;55.766;37.570;2023-04-19T13:36:17;9.43;;;4.80;;
37791;SDS011;29527;55.766;37.570;2023-04-19T13:38:43;6.63;;;4.50;;
37791;SDS011;29527;55.766;37.570;2023-04-19T13:41:10;8.25;;;4.50;;
37791;SDS011;29527;55.766;37.570;2023-04-19T13:43:36;8.25;;;4.78;;
37791;SDS011;29527;55.766;37.570;2023-04-19T13:46:01;8.20;;;4.60;;
37791;SDS011;29527;55.766;37.570;2023-04-19T13:48:27;8.45;;;4.43;;
37791;SDS011;29527;55.766;37.570;2023-04-19T13:50:53;6.43;;;4.55;;
37791;SDS011;29527;55.766;37.570;2023-04-19T13:53:20;9.98;;;4.88;;
37791;SDS011;29527;55.766;37.570;2023-04-19T13:55:46;13.73;;;4.90;;
37791;SDS011;29527;55.766;37.570;2023-04-19T13:58:11;6.80;;;4.80;;
37791;SDS011;29527;55.766;37.570;2023-04-19T14:00:37;9.55;;;4.45;;
37791;SDS011;29527;55.766;37.570;2023-04-19T14:03:02;8.98;;;4.30;;
37791;SDS011;29527;55.766;37.570;2023-04-19T14:05:28;9.50;;;4.43;;
37791;SDS011;29527;55.766;37.570;2023-04-19T14:07:54;8.20;;;4.95;;
37791;SDS011;29527;55.766;37.570;2023-04-19T14:10:19;7.53;;;4.32;;
37791;SDS011;29527;55.766;37.570;2023-04-19T14:12:45;5.95;;;3.97;;
37791;SDS011;29527;55.766;37.570;2023-04-19T14:15:11;8.25;;;4.68;;
37791;SDS011;29527;55.766;37.570;2023-04-19T14:17:37;10.63;;;4.95;;
37791;SDS011;29527;55.766;37.570;2023-04-19T14:20:03;7.30;;;4.32;;
37791;SDS011;29527;55.766;37.570;2023-04-19T14:22:30;8.20;;;4.47;;
37791;SDS011;29527;55.766;37.570;2023-04-19T14:24:56;7.13;;;4.22;;
37791;SDS011;29527;55.766;37.570;2023-04-19T14:27:22;6.50;;;4.03;;
37791;SDS011;29527;55.766;37.570;2023-04-19T14:29:48;5.90;;;3.70;;
37791;SDS011;29527;55.766;37.570;2023-04-19T14:32:13;9.60;;;4.55;;
37791;SDS011;29527;55.766;37.570;2023-04-19T14:34:40;7.45;;;4.22;;
37791;SDS011;29527;55.766;37.570;2023-04-19T14:37:05;9.32;;;3.80;;